Time;durP1;ratioP1;P1;durP2;ratioP2;P2;SDS_P1;SDS_P2;PMS_P1;PMS_P2;Temp;Humidity;BMP_temperature;BMP_pressure;BME280_temperature;BME280_humidity;BME280_pressure;Samples;Min_cycle;Max_cycle;Signal;HPM_P1;HPM_P2
2021/05/17 00:00:35;;;;;;;4.80;1.58;;;;;;;12.32;82.53;98158.97;5093254;28;20552;-73
2021/05/17 00:03:02;;;;;;;4.90;1.33;;;;;;;12.18;83.73;98152.09;5093444;28;20275;-73
2021/05/17 00:05:30;;;;;;;1.98;1.30;;;;;;;12.42;83.18;98168.00;5093274;28;20291;-72
2021/05/17 00:07:56;;;;;;;7.57;1.40;;;;;;;12.48;82.82;98163.88;5092906;28;20189;-72
2021/05/17 00:10:26;;;;;;;3.22;1.67;;;;;;;12.47;82.19;98162.19;5093563;28;20650;-73
2021/05/17 00:12:52;;;;;;;2.65;1.40;;;;;;;12.50;82.19;98164.59;5092742;28;20208;-73
2021/05/17 00:15:20;;;;;;;3.45;1.40;;;;;;;12.48;81.63;98164.75;5093183;28;20275;-73
2021/05/17 00:17:47;;;;;;;3.58;1.30;;;;;;;12.60;81.65;98165.50;5096548;28;20294;-74
2021/05/17 00:20:15;;;;;;;5.10;1.33;;;;;;;12.58;81.42;98170.19;5097127;28;20187;-74
2021/05/17 00:22:42;;;;;;;4.28;1.30;;;;;;;12.57;81.41;98167.59;5096750;28;20194;-73
2021/05/17 00:25:10;;;;;;;3.22;1.20;;;;;;;12.60;81.21;98170.06;5097032;28;20224;-74
2021/05/17 00:27:37;;;;;;;4.15;1.30;;;;;;;12.50;82.11;98176.28;5096783;28;20200;-72
2021/05/17 00:30:06;;;;;;;2.35;1.42;;;;;;;12.39;82.02;98176.38;5096245;28;20196;-73
2021/05/17 00:32:32;;;;;;;2.75;1.23;;;;;;;12.37;83.02;98174.78;5096682;28;20220;-73
2021/05/17 00:34:59;;;;;;;2.65;1.30;;;;;;;12.40;83.02;98171.81;5097092;28;20199;-73
2021/05/17 00:37:26;;;;;;;2.50;1.20;;;;;;;12.48;83.51;98177.38;5096633;28;20196;-75
2021/05/17 00:39:52;;;;;;;3.70;1.38;;;;;;;12.40;83.07;98178.06;5096507;28;20698;-73
2021/05/17 00:42:19;;;;;;;3.15;1.45;;;;;;;12.32;83.99;98172.47;5096566;28;20192;-75
2021/05/17 00:44:47;;;;;;;1.95;1.10;;;;;;;12.36;84.02;98173.94;5096793;28;20314;-72
2021/05/17 00:47:15;;;;;;;3.15;1.38;;;;;;;12.27;83.19;98166.63;5096368;28;20188;-73
2021/05/17 00:49:42;;;;;;;3.60;1.20;;;;;;;12.40;83.51;98166.41;5096461;28;20235;-74
2021/05/17 00:52:09;;;;;;;2.97;1.10;;;;;;;12.37;82.16;98169.38;5096310;28;20290;-73
2021/05/17 00:54:36;;;;;;;1.20;1.10;;;;;;;12.17;83.43;98172.00;5096544;28;20271;-71
2021/05/17 00:57:02;;;;;;;3.08;1.10;;;;;;;12.28;83.02;98158.41;5096356;28;20206;-74
2021/05/17 00:59:30;;;;;;;1.67;1.05;;;;;;;12.22;83.33;98152.72;5096098;28;20224;-73
2021/05/17 01:01:57;;;;;;;3.17;1.00;;;;;;;12.35;83.56;98163.28;5096815;28;20203;-74
2021/05/17 01:04:23;;;;;;;4.25;1.45;;;;;;;12.26;83.13;98163.09;5096137;28;20282;-73
2021/05/17 01:06:52;;;;;;;1.67;1.00;;;;;;;12.41;83.44;98165.41;5096396;28;20266;-74
2021/05/17 01:09:18;;;;;;;1.98;1.13;;;;;;;12.37;83.13;98156.75;5096245;28;20621;-74
2021/05/17 01:11:45;;;;;;;2.85;1.35;;;;;;;12.23;83.81;98160.69;5095843;28;20314;-74
2021/05/17 01:14:12;;;;;;;2.42;1.20;;;;;;;12.25;83.89;98163.22;5095888;28;20265;-75
2021/05/17 01:16:39;;;;;;;2.50;1.33;;;;;;;12.22;83.97;98155.41;5095881;28;20187;-74
2021/05/17 01:19:10;;;;;;;1.10;1.00;;;;;;;12.09;84.50;98159.16;5096235;28;20192;-73
2021/05/17 01:21:39;;;;;;;1.95;1.00;;;;;;;12.10;84.62;98160.03;5095511;28;20196;-74
2021/05/17 01:24:07;;;;;;;2.08;1.20;;;;;;;12.09;84.88;98159.16;5095963;28;20223;-73
2021/05/17 01:26:37;;;;;;;1.88;0.95;;;;;;;12.18;84.26;98156.66;5095634;28;20204;-73
2021/05/17 01:29:05;;;;;;;1.70;1.00;;;;;;;11.97;84.83;98160.25;5095701;28;20212;-73
2021/05/17 01:31:31;;;;;;;1.60;1.13;;;;;;;12.14;85.10;98161.44;5095535;28;20188;-72
2021/05/17 01:33:58;;;;;;;2.10;1.10;;;;;;;12.10;83.55;98166.28;5095342;28;20294;-73
2021/05/17 01:36:25;;;;;;;1.58;1.02;;;;;;;11.92;85.04;98158.91;5095423;28;20275;-72
2021/05/17 01:38:52;;;;;;;2.63;0.98;;;;;;;11.95;84.99;98162.22;5095770;28;20274;-74
2021/05/17 01:41:21;;;;;;;1.83;1.20;;;;;;;12.00;85.52;98159.13;5095593;28;20248;-74
2021/05/17 01:43:51;;;;;;;1.55;0.90;;;;;;;11.88;85.61;98159.19;5095709;28;20210;-73
2021/05/17 01:46:21;;;;;;;1.42;1.00;;;;;;;12.02;86.42;98167.94;5095647;28;20269;-72
2021/05/17 01:48:48;;;;;;;2.75;1.02;;;;;;;11.97;86.71;98164.78;5095402;28;20188;-74
2021/05/17 01:51:17;;;;;;;1.35;1.10;;;;;;;11.86;87.32;98162.97;5095478;28;20218;-74
2021/05/17 01:53:45;;;;;;;2.22;0.98;;;;;;;11.86;87.98;98155.72;5094968;28;20260;-73
2021/05/17 01:56:13;;;;;;;3.13;1.08;;;;;;;11.86;88.46;98161.13;5095015;28;20283;-73
2021/05/17 01:58:41;;;;;;;1.40;1.15;;;;;;;11.84;89.29;98165.78;5095276;28;20184;-73
2021/05/17 02:01:10;;;;;;;3.72;1.20;;;;;;;11.76;89.81;98162.91;5094760;28;20222;-73
2021/05/17 02:03:38;;;;;;;2.25;1.10;;;;;;;11.82;90.27;98166.91;5094672;28;20184;-72
2021/05/17 02:06:05;;;;;;;2.20;1.20;;;;;;;11.80;90.72;98169.75;5095201;28;20192;-72
2021/05/17 02:08:32;;;;;;;2.20;1.10;;;;;;;11.79;90.90;98167.19;5095115;28;20263;-72
2021/05/17 02:10:59;;;;;;;2.72;1.10;;;;;;;11.80;91.17;98167.06;5095250;28;20232;-72
2021/05/17 02:13:27;;;;;;;2.72;1.10;;;;;;;11.71;91.56;98159.75;5094932;28;20721;-73
2021/05/17 02:15:54;;;;;;;2.55;1.00;;;;;;;11.76;92.33;98173.72;5094881;28;20287;-73
2021/05/17 02:18:22;;;;;;;1.98;1.08;;;;;;;11.75;91.54;98169.28;5094632;28;20180;-76
2021/05/17 02:20:49;;;;;;;2.35;1.70;;;;;;;11.79;91.18;98175.28;5094637;28;20176;-73
2021/05/17 02:23:18;;;;;;;2.47;1.10;;;;;;;11.73;90.20;98167.72;5094633;28;20223;-73
2021/05/17 02:25:45;;;;;;;4.07;1.52;;;;;;;11.76;90.06;98171.00;5094498;28;20195;-74
2021/05/17 02:28:12;;;;;;;2.60;1.50;;;;;;;11.77;89.69;98171.84;5094607;28;20184;-73
2021/05/17 02:30:40;;;;;;;2.58;1.30;;;;;;;11.76;89.82;98167.44;5094644;28;20199;-74
2021/05/17 02:33:08;;;;;;;1.80;1.10;;;;;;;11.63;90.16;98163.09;5094502;28;20208;-74
2021/05/17 02:35:35;;;;;;;4.03;1.30;;;;;;;11.85;89.62;98162.13;5094283;28;20193;-75
2021/05/17 02:38:03;;;;;;;1.75;0.98;;;;;;;11.91;89.88;98159.91;5094467;28;20207;-72
2021/05/17 02:40:30;;;;;;;4.00;1.50;;;;;;;11.91;89.15;98163.47;5093972;28;20186;-74
2021/05/17 02:43:01;;;;;;;3.50;1.85;;;;;;;11.89;89.41;98163.59;5094315;28;20233;-74
2021/05/17 02:45:28;;;;;;;3.03;1.50;;;;;;;11.98;88.58;98169.19;5094488;28;20606;-73
2021/05/17 02:47:56;;;;;;;2.17;1.48;;;;;;;11.92;88.84;98169.69;5094504;28;20188;-74
2021/05/17 02:50:30;;;;;;;2.10;1.50;;;;;;;11.95;89.27;98172.16;5094491;28;20200;-74
2021/05/17 02:52:58;;;;;;;1.92;1.10;;;;;;;11.96;88.23;98174.72;5093520;28;20691;-74
2021/05/17 02:55:29;;;;;;;2.83;1.35;;;;;;;11.89;89.06;98178.91;5094243;28;20600;-73
2021/05/17 02:58:04;;;;;;;2.67;1.42;;;;;;;11.87;89.32;98172.75;5094378;28;20598;-73
2021/05/17 03:00:32;;;;;;;2.95;1.23;;;;;;;11.92;90.07;98175.97;5093990;28;20555;-75
2021/05/17 03:03:01;;;;;;;3.55;1.48;;;;;;;12.04;89.33;98179.44;5094236;28;20181;-73
2021/05/17 03:05:30;;;;;;;2.42;1.15;;;;;;;11.97;88.91;98180.97;5093928;28;20191;-74
2021/05/17 03:08:00;;;;;;;4.00;1.40;;;;;;;11.94;89.93;98183.91;5093788;28;20217;-74
2021/05/17 03:10:28;;;;;;;2.72;1.30;;;;;;;11.95;88.91;98180.25;5093945;28;20263;-72
2021/05/17 03:12:57;;;;;;;1.92;1.30;;;;;;;11.82;89.81;98183.94;5093701;28;20746;-73
2021/05/17 03:15:26;;;;;;;5.63;1.70;;;;;;;11.89;90.05;98185.19;5093891;28;20186;-74
2021/05/17 03:17:54;;;;;;;5.20;1.75;;;;;;;11.85;90.22;98182.84;5093525;28;20184;-74
2021/05/17 03:20:20;;;;;;;2.97;1.30;;;;;;;11.85;90.18;98182.84;5093874;28;20203;-74
2021/05/17 03:22:50;;;;;;;4.20;1.67;;;;;;;11.90;90.08;98188.72;5093887;28;20698;-74
2021/05/17 03:25:20;;;;;;;2.75;1.55;;;;;;;11.91;89.11;98176.09;5093910;28;20215;-73
2021/05/17 03:27:46;;;;;;;3.97;1.65;;;;;;;11.94;89.53;98181.22;5093865;28;20611;-72
2021/05/17 03:30:14;;;;;;;3.75;1.30;;;;;;;11.75;89.87;98181.91;5093597;28;20272;-74
2021/05/17 03:32:40;;;;;;;2.88;2.28;;;;;;;11.74;89.53;98191.00;5093615;28;20216;-73
2021/05/17 03:35:07;;;;;;;1.90;1.25;;;;;;;11.57;90.23;98182.50;5093634;28;20190;-74
2021/05/17 03:37:33;;;;;;;2.40;1.50;;;;;;;11.64;90.58;98188.22;5093123;28;20279;-74
2021/05/17 03:40:00;;;;;;;2.63;1.63;;;;;;;11.62;90.39;98187.50;5093254;28;20235;-74
2021/05/17 03:42:26;;;;;;;2.95;1.70;;;;;;;11.69;90.50;98192.25;5093463;28;20210;-72
2021/05/17 03:44:52;;;;;;;4.75;2.70;;;;;;;11.67;90.22;98187.97;5093344;28;20192;-72
2021/05/17 03:47:18;;;;;;;3.38;1.63;;;;;;;11.76;90.13;98195.28;5093121;28;20227;-74
2021/05/17 03:49:44;;;;;;;6.40;1.63;;;;;;;11.84;89.54;98191.91;5093462;28;20195;-75
2021/05/17 03:52:11;;;;;;;3.35;1.40;;;;;;;11.75;89.93;98198.09;5095966;28;20208;-74
2021/05/17 03:54:37;;;;;;;5.65;1.90;;;;;;;11.59;90.66;98199.38;5097603;28;20729;-74
2021/05/17 03:57:05;;;;;;;2.53;1.63;;;;;;;11.71;90.49;98199.34;5097315;28;20188;-74
2021/05/17 03:59:32;;;;;;;3.83;1.65;;;;;;;11.61;89.28;98205.50;5097531;28;20196;-74
2021/05/17 04:01:58;;;;;;;5.90;1.90;;;;;;;11.64;90.28;98216.03;5097082;28;20188;-73
2021/05/17 04:04:26;;;;;;;4.22;1.52;;;;;;;11.76;89.17;98211.47;5097319;28;20203;-74
2021/05/17 04:06:58;;;;;;;2.92;1.50;;;;;;;11.71;88.82;98221.75;5097713;28;20653;-73
2021/05/17 04:13:19;;;;;;;1.85;1.67;;;;;;;11.77;88.81;98221.25;5076893;28;20235;-74
2021/05/17 04:15:20;;;;;;;4.40;1.42;;;;;;;11.83;88.26;98236.91;5091255;28;20641;-74
2021/05/17 04:17:46;;;;;;;6.07;1.38;;;;;;;11.72;88.28;98238.81;5097262;28;20237;-72
2021/05/17 04:20:13;;;;;;;3.30;1.65;;;;;;;11.77;87.80;98228.47;5097304;28;20184;-72
2021/05/17 04:22:39;;;;;;;4.45;1.73;;;;;;;11.64;87.35;98229.50;5096866;28;20303;-72
2021/05/17 04:25:06;;;;;;;2.05;1.85;;;;;;;11.62;86.74;98227.94;5096668;28;20192;-74
2021/05/17 04:27:33;;;;;;;2.30;1.17;;;;;;;11.61;86.98;98235.16;5096593;28;20271;-74
2021/05/17 04:29:59;;;;;;;5.82;1.73;;;;;;;11.41;87.38;98238.69;5096985;28;20286;-74
2021/05/17 04:32:26;;;;;;;4.10;1.60;;;;;;;11.26;89.10;98236.28;5097052;28;20692;-74
2021/05/17 04:34:52;;;;;;;1.95;1.23;;;;;;;11.41;87.99;98236.81;5096885;28;20188;-73
2021/05/17 04:37:18;;;;;;;3.30;1.25;;;;;;;11.51;88.16;98241.44;5097178;28;20257;-74
2021/05/17 04:39:44;;;;;;;3.90;1.83;;;;;;;11.74;86.88;98243.09;5096807;28;20235;-72
2021/05/17 04:42:10;;;;;;;7.15;1.50;;;;;;;11.76;86.00;98251.91;5096982;28;20184;-72
2021/05/17 04:44:37;;;;;;;10.57;1.30;;;;;;;11.82;86.16;98251.34;5096395;28;20344;-72
2021/05/17 04:47:03;;;;;;;2.53;1.88;;;;;;;11.84;86.16;98254.78;5096445;28;20199;-73
2021/05/17 04:49:29;;;;;;;4.50;1.55;;;;;;;11.74;86.29;98255.72;5096669;28;20235;-73
2021/05/17 04:51:55;;;;;;;2.83;1.23;;;;;;;11.73;86.65;98262.06;5096482;28;20645;-74
2021/05/17 04:54:21;;;;;;;4.70;1.80;;;;;;;11.75;87.25;98257.41;5096223;28;20242;-74
2021/05/17 04:56:47;;;;;;;2.75;1.70;;;;;;;11.92;86.28;98258.69;5096077;28;20275;-73
2021/05/17 04:59:14;;;;;;;5.80;1.70;;;;;;;12.07;85.63;98260.09;5096082;28;20220;-74
2021/05/17 05:01:41;;;;;;;2.65;1.90;;;;;;;11.95;85.47;98272.78;5096089;28;20214;-73
2021/05/17 05:04:07;;;;;;;3.75;1.90;;;;;;;11.79;86.47;98269.66;5096466;28;20202;-73
2021/05/17 05:06:33;;;;;;;6.80;2.50;;;;;;;11.99;86.37;98273.41;5096285;28;20705;-74
2021/05/17 05:08:59;;;;;;;2.65;2.00;;;;;;;12.14;84.95;98276.63;5095929;28;20184;-73
2021/05/17 05:11:25;;;;;;;4.15;2.20;;;;;;;12.24;84.02;98274.84;5095583;28;20599;-74
2021/05/17 05:13:51;;;;;;;3.70;2.10;;;;;;;12.21;83.41;98281.38;5096091;28;20243;-73
2021/05/17 05:16:18;;;;;;;1.70;1.13;;;;;;;12.22;83.72;98283.06;5096021;28;20286;-72
2021/05/17 05:18:45;;;;;;;3.25;1.63;;;;;;;12.17;83.60;98279.94;5095079;28;20224;-73
2021/05/17 05:21:11;;;;;;;2.85;1.52;;;;;;;12.21;83.02;98277.78;5095855;28;20223;-74
2021/05/17 05:23:37;;;;;;;2.92;2.38;;;;;;;12.31;82.86;98286.84;5095759;28;20292;-74
2021/05/17 05:29:01;;;;;;;2.40;1.30;;;;;;;12.29;81.14;98284.25;5095403;28;20232;-73
2021/05/17 05:31:31;;;;;;;2.05;1.23;;;;;;;12.27;80.20;98288.91;5095418;28;20211;-73
2021/05/17 05:33:58;;;;;;;5.15;1.30;;;;;;;12.49;79.62;98289.78;5094849;28;20212;-74
2021/05/17 05:36:25;;;;;;;2.10;1.52;;;;;;;12.44;80.48;98289.34;5094716;28;20184;-73
2021/05/17 05:38:51;;;;;;;1.52;0.90;;;;;;;12.55;79.16;98289.25;5095066;28;20227;-74
2021/05/17 05:41:17;;;;;;;3.10;1.20;;;;;;;12.46;79.78;98290.06;5095234;28;20325;-73
2021/05/17 05:43:43;;;;;;;2.30;1.27;;;;;;;12.50;79.35;98291.47;5095585;28;20204;-74
2021/05/17 05:46:09;;;;;;;1.80;1.30;;;;;;;12.33;80.14;98295.66;5095138;28;20582;-73
2021/05/17 05:48:46;;;;;;;1.13;1.00;;;;;;;11.94;83.61;98295.38;5095240;28;20184;-74
2021/05/17 05:51:14;;;;;;;3.55;1.65;;;;;;;11.97;84.12;98291.56;5095214;28;20229;-73
2021/05/17 05:53:40;;;;;;;2.95;1.15;;;;;;;12.35;84.38;98282.03;5094968;28;20725;-73
2021/05/17 05:56:07;;;;;;;1.75;1.42;;;;;;;12.45;82.93;98282.94;5094953;28;20180;-73
2021/05/17 05:58:33;;;;;;;2.30;1.00;;;;;;;12.64;80.37;98293.84;5094172;28;20271;-72
2021/05/17 06:00:59;;;;;;;2.63;2.25;;;;;;;12.56;80.90;98301.75;5095208;28;20200;-72
2021/05/17 06:03:25;;;;;;;2.50;1.02;;;;;;;12.54;81.42;98303.72;5095106;28;20196;-72
2021/05/17 06:05:51;;;;;;;3.85;1.25;;;;;;;12.47;81.38;98307.97;5095291;28;20257;-73
2021/05/17 06:08:18;;;;;;;3.17;1.25;;;;;;;12.50;81.08;98305.84;5094620;28;20188;-74
2021/05/17 06:10:44;;;;;;;2.17;0.98;;;;;;;12.54;82.16;98308.28;5094794;28;20221;-74
2021/05/17 06:13:11;;;;;;;2.20;1.00;;;;;;;12.37;80.76;98305.19;5094341;28;20633;-74
2021/05/17 06:15:40;;;;;;;2.22;1.10;;;;;;;12.41;81.43;98303.94;5094217;28;20199;-72
2021/05/17 06:18:07;;;;;;;3.33;1.20;;;;;;;12.66;80.23;98308.09;5094905;28;20199;-75
2021/05/17 06:20:33;;;;;;;2.88;1.23;;;;;;;12.58;81.02;98302.47;5094744;28;20188;-72
2021/05/17 06:23:00;;;;;;;4.45;1.83;;;;;;;12.54;81.47;98316.38;5093853;28;20326;-73
2021/05/17 06:25:27;;;;;;;3.17;1.05;;;;;;;12.33;81.72;98316.41;5095000;28;20192;-74
2021/05/17 06:27:54;;;;;;;3.45;1.20;;;;;;;12.26;82.31;98327.72;5094300;28;20271;-73
2021/05/17 06:30:22;;;;;;;2.55;1.08;;;;;;;12.27;81.98;98312.38;5095285;28;20666;-73
2021/05/17 06:32:49;;;;;;;4.35;1.20;;;;;;;12.47;81.65;98326.84;5095448;28;20601;-73
2021/05/17 06:35:22;;;;;;;2.15;1.30;;;;;;;12.69;82.20;98318.59;5094366;28;20180;-73
2021/05/17 06:37:48;;;;;;;1.48;0.80;;;;;;;12.57;80.25;98325.06;5094313;28;20189;-74
2021/05/17 06:40:15;;;;;;;2.45;1.08;;;;;;;12.18;82.02;98324.78;5094236;28;20321;-74
2021/05/17 06:42:42;;;;;;;1.20;1.10;;;;;;;12.27;81.90;98325.84;5094061;28;20251;-72
2021/05/17 06:45:10;;;;;;;3.25;1.10;;;;;;;12.58;81.16;98328.63;5094467;28;20638;-73
2021/05/17 06:47:37;;;;;;;1.52;1.15;;;;;;;12.84;80.01;98332.59;5094402;28;20184;-71
2021/05/17 06:50:05;;;;;;;2.08;1.15;;;;;;;12.74;79.79;98337.09;5093820;28;20184;-72
2021/05/17 06:52:31;;;;;;;2.20;1.40;;;;;;;12.84;79.37;98329.03;5094367;28;20552;-71
2021/05/17 06:55:00;;;;;;;1.38;1.00;;;;;;;13.11;78.44;98332.03;5093591;28;20291;-72
2021/05/17 06:57:41;;;;;;;3.10;1.30;;;;;;;13.05;76.80;98324.47;5093809;28;20187;-72
2021/05/17 07:00:12;;;;;;;1.40;1.15;;;;;;;13.21;77.56;98331.22;5093556;28;20219;-72
2021/05/17 07:02:39;;;;;;;2.95;1.30;;;;;;;13.02;77.93;98330.13;5093675;28;20184;-73
2021/05/17 07:05:07;;;;;;;2.88;1.20;;;;;;;13.28;76.66;98327.84;5093633;28;20345;-72
2021/05/17 07:07:46;;;;;;;1.70;1.17;;;;;;;13.25;75.15;98322.69;5093725;28;20245;-74
2021/05/17 07:12:57;;;;;;;1.80;1.00;;;;;;;13.22;75.87;98336.47;5093524;28;20243;-72
2021/05/17 07:15:24;;;;;;;2.33;1.00;;;;;;;13.26;76.36;98326.25;5093639;28;20268;-71
2021/05/17 07:17:51;;;;;;;3.75;1.85;;;;;;;13.48;76.71;98338.72;5093943;28;20275;-73
2021/05/17 07:20:22;;;;;;;3.90;2.45;;;;;;;12.97;78.21;98342.34;5092383;28;20461;-73
2021/05/17 07:25:32;;;;;;;3.17;1.30;;;;;;;13.27;76.05;98333.34;5093358;28;20361;-73
2021/05/17 07:27:58;;;;;;;4.03;1.67;;;;;;;13.12;77.47;98331.03;5093493;28;20206;-74
2021/05/17 07:30:27;;;;;;;2.05;1.30;;;;;;;13.18;77.38;98336.88;5093247;28;20223;-72
2021/05/17 07:32:53;;;;;;;3.80;1.65;;;;;;;13.07;77.64;98336.00;5093387;28;20204;-73
2021/05/17 07:35:34;;;;;;;2.20;1.25;;;;;;;13.11;77.68;98340.16;5093374;28;20696;-71
2021/05/17 07:38:00;;;;;;;3.35;1.52;;;;;;;13.12;78.93;98336.44;5043473;28;20312;-73
2021/05/17 07:40:26;;;;;;;5.53;1.52;;;;;;;12.91;78.15;98332.91;5046421;28;20323;-74
2021/05/17 07:42:53;;;;;;;4.97;1.60;;;;;;;13.11;77.85;98333.84;5037298;28;20667;-73
2021/05/17 07:45:19;;;;;;;3.42;1.77;;;;;;;13.06;76.78;98331.56;5030732;28;20651;-72
2021/05/17 07:47:46;;;;;;;6.28;3.10;;;;;;;13.18;78.25;98342.28;5030732;28;20193;-72
2021/05/17 07:50:12;;;;;;;5.45;2.17;;;;;;;13.43;77.55;98335.56;5031237;28;20240;-71
2021/05/17 07:52:38;;;;;;;3.65;1.73;;;;;;;13.26;78.07;98339.75;5030769;28;20273;-72
2021/05/17 07:55:05;;;;;;;1.50;1.15;;;;;;;13.18;77.42;98339.56;5030536;28;20197;-73
2021/05/17 07:57:32;;;;;;;3.55;1.42;;;;;;;13.26;77.17;98331.66;5030120;28;20198;-74
2021/05/17 07:59:58;;;;;;;3.20;1.80;;;;;;;13.74;76.00;98328.22;5030041;28;20206;-72
2021/05/17 08:02:25;;;;;;;4.95;1.70;;;;;;;14.14;73.66;98330.84;5030058;28;20289;-74
2021/05/17 08:04:52;;;;;;;2.58;1.27;;;;;;;14.53;71.73;98338.91;5030238;28;20213;-72
2021/05/17 08:07:18;;;;;;;5.50;1.63;;;;;;;14.07;71.80;98336.97;5030053;28;20640;-74
2021/05/17 08:09:44;;;;;;;2.58;1.65;;;;;;;13.88;71.98;98321.56;5030026;28;20289;-72
2021/05/17 08:12:11;;;;;;;4.75;1.58;;;;;;;13.76;72.54;98334.38;5029884;28;20297;-72
2021/05/17 08:14:37;;;;;;;5.43;2.15;;;;;;;14.12;71.87;98330.13;5042926;28;20261;-74
2021/05/17 08:17:05;;;;;;;5.18;1.55;;;;;;;13.84;70.95;98320.13;5072452;28;20205;-74
2021/05/17 08:19:32;;;;;;;5.10;1.40;;;;;;;13.94;71.27;98323.72;5072482;28;20516;-73
2021/05/17 08:22:00;;;;;;;2.50;1.30;;;;;;;14.18;70.82;98334.13;5072073;28;20196;-73
2021/05/17 08:24:26;;;;;;;3.35;1.42;;;;;;;14.22;70.22;98338.22;5072313;28;20203;-73
2021/05/17 08:26:53;;;;;;;2.45;1.30;;;;;;;14.39;69.59;98337.50;5072202;28;20189;-72
2021/05/17 08:29:19;;;;;;;3.22;1.25;;;;;;;14.41;69.16;98333.81;5072527;28;20236;-72
2021/05/17 08:31:48;;;;;;;3.78;1.38;;;;;;;14.55;68.18;98341.53;5071820;28;20192;-72
2021/05/17 08:34:15;;;;;;;4.18;1.48;;;;;;;15.08;65.96;98332.84;5072107;28;20225;-74
2021/05/17 08:36:41;;;;;;;5.00;1.52;;;;;;;14.98;64.74;98342.84;5072353;28;20226;-73
2021/05/17 08:39:09;;;;;;;4.35;1.70;;;;;;;15.08;65.63;98340.09;5075660;28;20233;-72
2021/05/17 08:41:36;;;;;;;5.55;1.95;;;;;;;15.18;65.26;98335.50;5075361;28;20198;-74
2021/05/17 08:44:03;;;;;;;2.22;1.48;;;;;;;15.14;65.60;98350.34;5075653;28;20620;-74
2021/05/17 08:46:29;;;;;;;6.53;1.77;;;;;;;15.07;65.69;98355.50;5075221;28;20287;-72
2021/05/17 08:48:55;;;;;;;5.28;1.80;;;;;;;15.37;63.82;98343.53;5075281;28;20554;-73
2021/05/17 08:51:24;;;;;;;4.25;2.05;;;;;;;15.33;63.41;98346.69;5075300;28;20314;-73
2021/05/17 08:53:51;;;;;;;4.15;1.63;;;;;;;15.57;63.18;98348.84;5075428;28;20313;-74
2021/05/17 08:56:19;;;;;;;3.08;1.25;;;;;;;15.81;62.68;98346.47;5075256;28;20210;-72
2021/05/17 08:58:45;;;;;;;9.60;2.22;;;;;;;16.07;61.62;98347.56;5075215;28;20638;-74
2021/05/17 09:01:11;;;;;;;5.50;1.85;;;;;;;16.27;59.52;98349.97;5075417;28;20207;-73
2021/05/17 09:03:37;;;;;;;5.00;1.95;;;;;;;16.13;60.37;98347.81;5074908;28;20237;-72
2021/05/17 09:06:07;;;;;;;2.58;1.42;;;;;;;15.91;60.48;98353.69;5074933;28;20294;-73
2021/05/17 09:08:40;;;;;;;5.03;2.03;;;;;;;15.58;61.64;98351.44;5075083;28;20212;-74
2021/05/17 09:11:06;;;;;;;4.38;1.42;;;;;;;15.38;62.40;98356.09;5075311;28;20717;-73
2021/05/17 09:13:33;;;;;;;3.83;1.60;;;;;;;15.01;63.53;98350.66;5075087;28;20713;-73
2021/05/17 09:16:00;;;;;;;5.25;1.52;;;;;;;15.02;63.12;98361.38;5074866;28;20234;-73
2021/05/17 09:18:28;;;;;;;6.97;2.00;;;;;;;15.13;63.46;98351.38;5075123;28;20593;-73
2021/05/17 09:20:56;;;;;;;5.45;1.90;;;;;;;14.91;65.19;98368.81;5075341;28;20197;-73
2021/05/17 09:23:24;;;;;;;2.50;1.30;;;;;;;14.29;71.24;98363.75;5075360;28;20256;-73
2021/05/17 09:25:59;;;;;;;3.95;1.38;;;;;;;13.50;77.64;98383.56;5074961;28;20189;-73
2021/05/17 09:28:28;;;;;;;4.43;1.80;;;;;;;13.05;81.31;98385.75;5075036;28;20668;-73
2021/05/17 09:31:03;;;;;;;7.65;1.50;;;;;;;12.60;86.26;98391.47;5074803;28;20297;-74
2021/05/17 09:33:37;;;;;;;2.63;1.85;;;;;;;12.59;89.56;98387.88;5074730;28;20206;-72
2021/05/17 09:36:05;;;;;;;4.10;1.40;;;;;;;12.53;88.95;98399.22;5075003;28;20640;-73
2021/05/17 09:38:32;;;;;;;2.20;1.63;;;;;;;12.54;87.23;98398.22;5074502;28;20236;-73
2021/05/17 09:41:04;;;;;;;8.18;2.30;;;;;;;12.70;87.50;98395.06;5074552;28;20201;-74
2021/05/17 09:43:32;;;;;;;8.32;1.50;;;;;;;12.92;86.55;98399.47;5074125;28;20290;-73
2021/05/17 09:46:00;;;;;;;4.05;1.60;;;;;;;12.94;85.11;98401.06;5074492;28;20189;-72
2021/05/17 09:48:30;;;;;;;2.67;1.40;;;;;;;13.24;85.30;98406.59;5074092;28;20211;-73
2021/05/17 09:51:05;;;;;;;4.57;1.55;;;;;;;13.22;82.64;98406.72;5074143;28;20296;-73
2021/05/17 09:53:33;;;;;;;5.03;1.52;;;;;;;13.17;83.22;98418.97;5074700;28;20209;-74
2021/05/17 09:56:00;;;;;;;7.20;1.90;;;;;;;13.20;84.81;98421.38;5074237;28;20291;-75
2021/05/17 09:58:27;;;;;;;8.65;2.63;;;;;;;13.15;86.97;98433.44;5074066;28;20223;-73
2021/05/17 10:01:12;;;;;;;3.45;2.28;;;;;;;12.67;94.35;98417.78;5074321;28;20303;-74
2021/05/17 10:03:40;;;;;;;4.50;1.90;;;;;;;12.28;94.20;98430.97;5074295;28;20189;-73
2021/05/17 10:06:09;;;;;;;3.90;1.73;;;;;;;11.82;97.79;98434.75;5074233;28;20184;-72
2021/05/17 10:08:35;;;;;;;5.47;1.92;;;;;;;11.80;99.67;98436.72;5074267;28;20204;-72
2021/05/17 10:11:02;;;;;;;3.28;2.13;;;;;;;11.78;100.00;98427.91;5074308;28;20188;-72
2021/05/17 10:13:33;;;;;;;6.50;1.95;;;;;;;11.95;100.00;98410.34;5073993;28;20297;-74
2021/05/17 10:16:02;;;;;;;2.88;1.60;;;;;;;12.23;99.68;98408.94;5073639;28;20246;-73
2021/05/17 10:18:30;;;;;;;3.42;1.67;;;;;;;12.50;96.29;98411.16;5073847;28;20203;-73
2021/05/17 10:20:57;;;;;;;4.80;2.35;;;;;;;12.86;97.09;98416.22;5073899;28;20267;-74
2021/05/17 10:23:23;;;;;;;4.50;1.80;;;;;;;13.12;89.18;98419.34;5073459;28;20188;-74
2021/05/17 10:25:51;;;;;;;8.40;1.42;;;;;;;12.86;89.05;98410.81;5073645;28;20240;-74
2021/05/17 10:28:20;;;;;;;4.63;4.15;;;;;;;12.87;91.05;98417.94;5073708;28;20196;-73
2021/05/17 10:30:47;;;;;;;4.60;2.72;;;;;;;12.72;91.44;98415.53;5073397;28;20231;-72
2021/05/17 10:33:19;;;;;;;5.15;2.15;;;;;;;12.57;90.09;98418.69;5073572;28;20216;-75
2021/05/17 10:35:52;;;;;;;3.70;1.70;;;;;;;12.96;89.39;98419.84;5073575;28;20188;-73
2021/05/17 10:38:25;;;;;;;3.05;1.80;;;;;;;13.72;86.47;98416.78;5073144;28;20307;-74
2021/05/17 10:40:58;;;;;;;3.55;1.95;;;;;;;14.02;83.71;98421.28;5073808;28;20570;-73
2021/05/17 10:44:00;;;;;;;2.92;1.65;;;;;;;14.45;82.13;98421.88;5073272;28;20230;-72
2021/05/17 10:46:38;;;;;;;1.90;1.70;;;;;;;14.59;79.71;98433.19;5050921;28;20228;-72
2021/05/17 10:49:22;;;;;;;3.95;2.00;;;;;;;14.58;79.75;98442.31;5071175;28;20209;-70
2021/05/17 10:51:51;;;;;;;5.95;2.17;;;;;;;14.28;82.89;98424.28;5073813;28;20552;-73
2021/05/17 10:54:22;;;;;;;3.22;2.00;;;;;;;14.13;82.20;98420.28;5073682;28;20312;-72
2021/05/17 10:56:54;;;;;;;2.78;1.48;;;;;;;14.22;77.43;98416.72;5073634;28;20205;-73
2021/05/17 11:02:11;;;;;;;2.42;1.40;;;;;;;14.83;73.15;98417.47;5073066;28;20319;-73
2021/05/17 11:04:38;;;;;;;1.60;1.40;;;;;;;14.83;74.32;98428.31;5073509;28;20372;-72
2021/05/17 11:07:18;;;;;;;5.13;1.95;;;;;;;14.87;76.18;98427.88;5073698;28;20210;-74
2021/05/17 11:09:51;;;;;;;4.07;1.83;;;;;;;14.63;77.07;98419.34;5082540;28;20992;-73
2021/05/17 11:13:09;;;;;;;3.45;1.55;;;;;;;14.44;77.95;98407.47;5092051;28;20197;-72
2021/05/17 11:16:00;;;;;;;5.47;2.03;;;;;;;14.62;80.85;98413.06;5092867;28;20305;-72
2021/05/17 11:18:40;;;;;;;2.60;1.50;;;;;;;14.16;79.52;98407.34;5093036;28;20201;-72
2021/05/17 11:21:12;;;;;;;4.40;1.80;;;;;;;14.20;81.23;98410.63;5092322;28;20197;-73
2021/05/17 11:23:53;;;;;;;2.00;1.40;;;;;;;14.23;80.48;98407.63;5092532;28;20289;-73
2021/05/17 11:26:22;;;;;;;2.45;1.60;;;;;;;14.57;81.76;98413.50;5092899;28;20208;-73
2021/05/17 11:29:13;;;;;;;2.80;1.60;;;;;;;14.90;78.49;98408.63;5092879;28;20235;-73
2021/05/17 11:31:49;;;;;;;2.13;1.25;;;;;;;15.24;74.82;98413.53;5092160;28;20241;-73
2021/05/17 11:34:26;;;;;;;4.35;1.40;;;;;;;15.28;74.44;98408.66;5092917;28;20662;-73
2021/05/17 11:37:08;;;;;;;4.55;1.42;;;;;;;15.53;72.47;98415.25;5092524;28;20650;-73
2021/05/17 11:39:34;;;;;;;2.80;1.40;;;;;;;16.13;69.09;98396.69;5092220;28;20230;-72
2021/05/17 11:42:06;;;;;;;2.35;1.33;;;;;;;16.82;67.06;98416.88;5092673;28;20630;-73
2021/05/17 11:44:35;;;;;;;3.00;1.30;;;;;;;16.84;67.38;98408.56;5091950;28;20230;-73
2021/05/17 11:47:04;;;;;;;2.20;1.30;;;;;;;15.59;68.83;98403.81;5092792;28;20345;-74
2021/05/17 11:49:33;;;;;;;1.15;0.80;;;;;;;15.47;69.83;98410.44;5092825;28;20252;-75
2021/05/17 11:52:00;;;;;;;3.28;1.00;;;;;;;15.14;69.02;98420.84;5092738;28;20203;-73
2021/05/17 11:54:33;;;;;;;2.08;1.00;;;;;;;14.90;69.80;98414.06;5092061;28;20260;-74